WEATHER DATA

YESTERDAY
Time Temp. Dewp. Hum. Wind dir Wind speed Wind gust Bar. 1h Prec. 24h Prec.
00:00 17.8 8.4 54 326 0.8 2.5 1005.3 0.0000 0.0000
00:10 17.7 8.3 54 317 0.8 1.7 1005.4 0.0000 0.0000
00:21 17.6 8.2 54 329 0.8 1.9 1005.5 0.0000 0.0000
00:30 17.5 8.1 54 351 0.8 1.9 1005.4 0.0000 0.0000
00:40 17.4 8 54 336 0.8 1.7 1005.3 0.0000 0.0000
00:50 17.4 8.3 55 356 0.8 1.7 1005.3 0.0000 0.0000
01:01 17.2 8.1 55 341 0.8 1.7 1005.3 0.0000 0.0000
01:10 17.1 8 55 334 0.8 2.5 1005.3 0.0000 0.0000
01:20 17 7.9 55 336 0.8 1.7 1005 0.0000 0.0000
01:30 16.9 7.8 55 336 0.8 1.9 1005.1 0.0000 0.0000
01:41 16.7 7.6 55 331 0.8 2.2 1005.1 0.0000 0.0000
01:50 16.5 7.4 55 325 0.8 2.8 1005.1 0.0000 0.0000
02:01 16.5 7.7 56 346 0.8 1.7 1005.1 0.0000 0.0000
02:11 16.4 7.6 56 356 0.8 1.7 1005 0.0000 0.0000
02:21 16.4 7.6 56 352 0.8 1.7 1005.1 0.0000 0.0000
02:30 16.3 7.5 56 347 0.6 1.1 1005.3 0.0000 0.0000
02:41 16.2 7.4 56 318 0.8 1.7 1005.1 0.0000 0.0000
02:51 16.1 7.3 56 326 0.6 1.7 1005.2 0.0000 0.0000
03:01 16 7.5 57 3 0.8 1.7 1005.3 0.0000 0.0000
03:11 15.9 7.4 57 357 0.8 1.7 1005.5 0.0000 0.0000
03:21 15.7 7.2 57 343 0.8 2.2 1005.4 0.0000 0.0000
03:31 15.6 7.1 57 350 0.8 1.7 1005.4 0.0000 0.0000
03:41 15.6 7.1 57 340 0.6 1.7 1005.2 0.0000 0.0000
03:52 15.4 6.9 57 6 0.8 1.7 1005 0.0000 0.0000
04:01 15.4 6.9 57 332 0.8 1.7 1005.2 0.0000 0.0000
04:11 15.4 7.2 58 354 0.6 1.1 1005.1 0.0000 0.0000
04:21 15.4 7.2 58 340 0.6 1.7 1005.1 0.0000 0.0000
04:32 15.4 7.2 58 349 0.6 1.7 1005 0.0000 0.0000
04:41 15.4 7.2 58 338 0.6 1.1 1005 0.0000 0.0000
04:51 15.4 7.2 58 347 0.6 1.7 1005.1 0.0000 0.0000
05:02 15.4 7.2 58 344 0.6 1.1 1005.2 0.0000 0.0000
05:12 15.4 7.4 59 349 0.8 1.1 1005.4 0.0000 0.0000
05:22 15.4 7.4 59 6 0.8 1.9 1005.4 0.0000 0.0000
05:32 15.4 7.4 59 320 0.8 2.2 1005.4 0.0000 0.0000
05:42 15.3 7.3 59 317 0.8 1.9 1005.5 0.0000 0.0000
05:52 15.4 7.4 59 325 0.8 2.2 1005.5 0.0000 0.0000
05:58 15.4 7.4 59 353 0.6 1.7 1005.5 0.0000 0.0000
06:13 15.5 7.5 59 315 0.6 1.7 1005.6 0.0000 0.0000
06:23 15.5 7.5 59 293 0.6 1.9 1005.5 0.0000 0.0000
06:32 15.6 7.6 59 329 0.6 1.9 1005.5 0.0000 0.0000
06:42 15.6 7.6 59 315 0.6 2.2 1005.5 0.0000 0.0000
06:53 15.8 8.1 60 338 0.6 2.5 1005.5 0.0000 0.0000
07:03 15.8 8.1 60 350 0.8 1.9 1005.6 0.0000 0.0000
07:12 15.8 8.1 60 347 0.8 2.2 1005.7 0.0000 0.0000
07:23 15.8 8.1 60 0 0.6 1.7 1005.7 0.0000 0.0000
07:33 16 8.2 60 318 0.6 1.9 1005.6 0.0000 0.0000
07:43 16.1 8.3 60 347 0.8 2.2 1005.5 0.0000 0.0000
07:53 16.3 8.5 60 329 0.6 1.7 1005.6 0.0000 0.0000
08:03 16.6 8.8 60 315 0.6 1.7 1005.4 0.0000 0.0000
08:13 16.8 9 60 291 0.8 2.5 1005.4 0.0000 0.0000
08:23 17.5 9.9 61 319 0.6 1.1 1005.3 0.0000 0.0000
08:34 17.9 10.3 61 270 0.3 1.1 1005.3 0.0000 0.0000
08:43 18.5 10.8 61 270 0.6 2.5 1005.2 0.0000 0.0000
08:53 18.8 10.9 60 315 0.6 1.9 1005.2 0.0000 0.0000
09:03 19.5 11.5 60 295 0.8 2.2 1005.2 0.0000 0.0000
09:14 19.3 11.1 59 2 1.1 2.5 1005.2 0.0000 0.0000
09:23 19.2 11 59 352 0.8 2.5 1005.2 0.0000 0.0000
09:33 18.8 10.6 59 327 1.1 2.2 1005.2 0.0000 0.0000
09:44 18.9 10.7 59 25 0.6 1.1 1005.3 0.0000 0.0000
09:54 19.1 10.9 59 320 1.1 2.5 1005.3 0.0000 0.0000
10:04 19 10.8 59 352 0.8 1.9 1005.3 0.0000 0.0000
10:14 19.3 11.1 59 270 0.6 1.7 1005.3 0.0000 0.0000
10:24 19.4 11.2 59 347 0.6 2.5 1005.3 0.0000 0.0000
10:34 19.5 11.3 59 293 0.6 1.7 1005.3 0.0000 0.0000
10:44 19.8 11.3 58 354 0.6 2.2 1005.3 0.0000 0.0000
10:54 20.1 11.6 58 315 0.6 1.1 1005.4 0.0000 0.0000
11:04 20.1 11.6 58 8 0.8 1.7 1005.4 0.0000 0.0000
11:14 20.2 11.7 58 11 0.6 1.9 1005.4 0.0000 0.0000
11:24 20.7 12.1 58 352 0.3 1.9 1005.4 0.0000 0.0000
11:34 20.9 12.3 58 3 0.6 1.9 1005.4 0.0000 0.0000
11:44 20.8 12 57 6 1.1 2.2 1005.3 0.0000 0.0000
11:54 20.9 12.1 57 15 0.6 1.7 1005.4 0.0000 0.0000
12:05 21.3 12.4 57 0 0.3 1.1 1005.3 0.0000 0.0000
12:14 21.3 12.4 57 27 0.6 1.1 1005.3 0.0000 0.0000
12:24 21.5 12.6 57 0 0.3 1.1 1005.3 0.0000 0.0000
12:35 21.5 12.4 56 24 0.8 1.9 1005.1 0.0000 0.0000
12:45 21.8 12.6 56 225 0.6 1.7 1005 0.0000 0.0000
12:55 21.6 12.2 55 30 0.8 2.2 1005 0.0000 0.0000
13:04 22 12.8 56 315 0.6 1.1 1005 0.0000 0.0000
13:15 22.3 12.8 55 270 0.6 1.9 1004.8 0.0000 0.0000
13:25 22.1 12.4 54 309 0.8 1.9 1004.8 0.0000 0.0000
13:35 22.3 12.6 54 270 0.6 1.9 1004.7 0.0000 0.0000
13:45 22.5 12.7 54 270 0.6 2.2 1004.7 0.0000 0.0000
13:55 22.8 13 54 270 0.6 1.7 1004.7 0.0000 0.0000
14:05 22.6 12.5 53 321 0.8 2.5 1004.7 0.0000 0.0000
14:15 22.6 12.5 53 315 0.6 1.9 1004.6 0.0000 0.0000
14:25 22.8 12.7 53 239 0.6 1.9 1004.7 0.0000 0.0000
14:35 23 12.9 53 270 0.6 2.2 1004.5 0.0000 0.0000
14:45 23.4 13.3 53 212 0.6 1.9 1004.4 0.0000 0.0000
14:56 23.9 13.7 53 241 0.8 3.1 1004.3 0.0000 0.0000
15:05 24.1 13.6 52 246 2.2 4.4 1004.3 0.0000 0.0000
15:15 24.1 13.3 51 210 0.8 2.2 1004.2 0.0000 0.0000
15:25 23.9 13.2 51 296 0.8 1.9 1004.3 0.0000 0.0000
15:35 23.3 12.3 50 349 2.5 5.6 1004.6 0.0000 0.0000
15:45 21.7 10.5 49 345 1.9 4.2 1004.6 0.0000 0.0000
15:55 20.8 10.3 51 0 1.1 2.8 1004.5 0.2020 0.2000
16:05 20.7 10.8 53 310 0.3 1.7 1004.5 0.2020 0.2000
16:15 20.8 11.2 54 270 0.3 1.7 1004.3 0.2020 0.2000
16:25 21.1 11.7 55 270 0.3 1.1 1004.3 0.2020 0.2000
16:35 21.3 11.9 55 270 0.3 0.8 1004.2 0.2020 0.2000
16:45 21.6 12.2 55 225 0.3 1.7 1004.1 0.2020 0.2000
16:55 21.6 11.9 54 311 0.3 0.8 1004.2 0.0000 0.2000
17:05 21.7 12 54 329 0.6 1.9 1004.3 0.0000 0.2000
17:16 21.6 11.9 54 308 0.8 2.5 1004.2 0.0000 0.2000
17:25 21.4 11.7 54 295 0.8 2.2 1004.2 0.1010 0.3000
17:35 21.5 11.8 54 312 0.6 1.7 1004.2 0.1010 0.3000
17:46 21.6 11.9 54 270 0.3 0.8 1004.3 0.1010 0.3000
17:56 21.7 12 54 270 0.3 0.8 1004.2 0.1010 0.3000
18:06 21.7 12 54 288 0.6 1.7 1004.2 0.1010 0.3000
18:15 21.8 12.1 54 296 0.6 1.1 1004 0.0000 0.3000
18:26 21.6 11.9 54 306 0.8 3.1 1004.2 0.0000 0.3000
18:36 20.7 10.8 53 328 1.7 4.2 1004.7 0.0000 0.3000
18:46 20 10.1 53 247 1.1 3.1 1005 0.3030 0.6000
18:56 18.9 9.1 53 306 0.6 1.7 1004.9 2.1210 2.4000
19:07 18.3 8.8 54 337 0.6 1.9 1004.9 2.6260 2.9000
19:16 17.8 8.6 55 45 0.3 1.7 1005 3.0300 3.3000
19:26 17.5 8.6 56 194 0.3 0.8 1004.9 3.4340 3.7000
19:37 17.5 8.6 56 143 0.3 0.8 1005 3.3330 3.8000
19:47 17.6 9 57 167 0.3 1.1 1004.9 2.8280 4.1000
19:56 17.5 8.9 57 149 0.3 0.6 1005 1.4140 4.1000
20:07 17.5 8.9 57 225 0.3 0.8 1004.9 1.0100 4.1000
20:17 17.4 9.1 58 204 0.3 0.6 1005.1 0.6060 4.1000
20:27 17.3 9 58 158 0.3 0.6 1005.2 0.4040 4.1000
20:37 17.2 8.9 58 135 0.3 0.6 1005.2 0.1010 4.1000
20:47 17.1 8.8 58 206 0.3 0.6 1005.3 0.0000 4.1000
20:57 17 8.9 59 198 0.3 0.8 1005.3 0.0000 4.1000
21:07 16.9 8.8 59 203 0.3 0.6 1005.4 0.0000 4.1000
21:17 16.9 8.8 59 150 0.3 0.6 1005.5 0.0000 4.1000
21:27 16.9 8.8 59 153 0.3 0.8 1005.6 0.0000 4.1000
21:37 16.7 8.7 59 135 0.3 0.6 1005.7 0.0000 4.1000
21:47 16.7 8.7 59 135 0.3 0.6 1005.9 0.0000 4.1000
21:58 16.6 8.8 60 126 0.3 0.8 1006 0.0000 4.1000
22:07 16.6 8.8 60 147 0.3 0.8 1005.9 0.0000 4.1000
22:17 16.5 8.7 60 131 0.3 0.8 1005.9 0.0000 4.1000
22:28 16.4 8.6 60 140 0.3 0.8 1006 0.0000 4.1000
22:38 16.2 8.4 60 135 0.3 0.8 1005.9 0.0000 4.1000
22:48 16.1 8.3 60 146 0.3 0.6 1006 0.0000 4.1000
22:57 16 8.2 60 90 0.3 0.6 1005.9 0.0000 4.1000
23:08 15.9 8.2 60 90 0.3 0.6 1005.9 0.0000 4.1000
23:18 15.8 8.3 61 333 0.3 0.6 1006 0.0000 4.1000
23:28 15.7 8.2 61 270 0.3 0.8 1006 0.0000 4.1000
23:43 15.7 8.2 61 198 0.3 0.8 1006 0.1010 4.2000
23:53 15.6 8.1 61 270 0.3 0.6 1006 0.1010 4.2000

DAY STATISTIC

2021-08-01
TEMPERATURE
AVERAGE
18.5
HIGH
24.1
15:05
LOW
15.3
05:42
PRESSURE
AVERAGE
1005.1
HIGH
1006.0
21:58
LOW
1004.0
18:15
DEWPOINT
AVERAGE
9.7
HIGH
13.7
14:56
LOW
6.9
03:52
HUMIDITY
AVERAGE
57
HIGH
61
08:23
LOW
49
15:45
WIND SPEED
AVERAGE
0.6
HIGH
2.5
15:35
WIND GUST
AVERAGE
1.7
HIGH
5.6
15:35
WIND DIRECTION
PREVAILING
NW
32.2%
N
30.1
NE
3.5
E
1.4
SE
9.1
S
4.9
SW
7.0
W
11.9
NW
32.2
PRECIPITATION
RAIN HOUR
3.4
RAIN DAY
4.2
TEMPERATURE (°C)
LOW
15.3
HIGH
24.1
AVERAGE
18.5
PRESSURE (hpa)
LOW
1004.0
HIGH
1006.0
AVERAGE
1005.1
DEVICE